Pagrindinis puslapis
METAR-TAF:

METAR-TAF

Oro uostai :

Ängelholm–Helsingborg

Helsingborgas, Švedija

platuma: 56-17-46N, ilguma: 012-50-50E, Aukštis: 21 m

Dabartinis oras

Ataskaita buvo paskelbta 17 minutes, ne 05:50 UTC
Vėjas 2 kt iš Rytų/Pietryčių
Temperatūra 16°C
Drėgmė 88%
Slėgis 1026 hPa
Matomumas 10 km arba daugiau

METAR: ESTA 110550Z AUTO 11002KT 9999 NCD 16/14 Q1026

Laikas: 08:07 (06:07 UTC)

Prognozė

Ataskaita buvo paskelbta 15 valandos ir 59 minutes, ne 14:08 UTC
Prognozė galioja nuo 10 metu 15 UTC su 10 metu 18 UTC
Vėjas 7 kt iš Vakarų/Šiaurės Vakarų
Matomumas 10 km arba daugiau
nėra debesų žemiau 1500 m ir nėra kamuolinių lietaus debesų

TAF: ESTA 101408Z 1015/1018 29007KT CAVOK

Orai ataskaitas ir orų prognozės (METAR, TAF).

turimą stotys yra geltonos ir raudonos taškus žemėlapyje.

Perkelti pele per norėdami pamatyti stoties vardą.

Tada spustelėkite, norėdami matyti oro stebėjimo ir prognozės.

Norėdami pakeisti žemėlapį: spustelėkite ant žalios mygtukų su juodo kryžiaus žemyn,; žalią mygtuką su brūkšneliu, jei norite nutolinti; arba žalių rodyklių gretimoms žemėlapius.


METAR-TAF: